Time;durP1;ratioP1;P1;durP2;ratioP2;P2;SDS_P1;SDS_P2;PMS_P1;PMS_P2;Temp;Humidity;BMP_temperature;BMP_pressure;BME280_temperature;BME280_humidity;BME280_pressure;Samples;Min_cycle;Max_cycle;Signal;HPM_P1;HPM_P2
2021/06/25 00:01:19;;;;;;;24.83;5.50;;;;;;;;;;5013137;28;20124;-62
2021/06/25 00:03:45;;;;;;;24.38;6.30;;;;;;;;;;5013117;28;20466;-63
2021/06/25 00:06:11;;;;;;;38.75;5.95;;;;;;;;;;5013089;28;20072;-62
2021/06/25 00:08:38;;;;;;;36.00;6.70;;;;;;;;;;5011803;28;20073;-62
2021/06/25 00:11:04;;;;;;;24.45;5.85;;;;;;;;;;5013070;28;20022;-63
2021/06/25 00:13:30;;;;;;;25.30;7.75;;;;;;;;;;5012981;28;20061;-62
2021/06/25 00:15:56;;;;;;;27.38;6.93;;;;;;;;;;5011730;28;20112;-62
2021/06/25 00:18:23;;;;;;;22.95;5.40;;;;;;;;;;5012994;28;20034;-62
2021/06/25 00:20:49;;;;;;;25.15;6.72;;;;;;;;;;5013190;28;20034;-62
2021/06/25 00:23:15;;;;;;;29.60;8.13;;;;;;;;;;5013200;28;20429;-62
2021/06/25 00:25:41;;;;;;;28.42;6.82;;;;;;;;;;5012702;28;20014;-62
2021/06/25 00:28:08;;;;;;;28.98;8.45;;;;;;;;;;5011579;28;20386;-62
2021/06/25 00:30:34;;;;;;;36.63;8.73;;;;;;;;;;5011455;28;20064;-62
2021/06/25 00:33:00;;;;;;;33.53;7.05;;;;;;;;;;5012856;28;20038;-62
2021/06/25 00:35:26;;;;;;;23.98;7.30;;;;;;;;;;5012826;28;20487;-62
2021/06/25 00:37:53;;;;;;;26.60;7.72;;;;;;;;;;5016342;28;20037;-62
2021/06/25 00:40:19;;;;;;;29.33;6.72;;;;;;;;;;5015135;28;20124;-62
2021/06/25 00:42:45;;;;;;;25.35;6.57;;;;;;;;;;5015024;28;20033;-62
2021/06/25 00:45:19;;;;;;;35.22;7.53;;;;;;;;;;5016627;28;20089;-62
2021/06/25 00:47:46;;;;;;;25.25;6.38;;;;;;;;;;5016310;28;20025;-62
2021/06/25 00:50:14;;;;;;;30.08;6.95;;;;;;;;;;5015879;28;20058;-62
2021/06/25 00:52:40;;;;;;;29.13;7.30;;;;;;;;;;5014888;28;20039;-62
2021/06/25 00:55:07;;;;;;;22.17;6.47;;;;;;;;;;5016439;28;20105;-62
2021/06/25 00:57:33;;;;;;;33.67;6.57;;;;;;;;;;5016064;28;20120;-62
2021/06/25 00:59:59;;;;;;;34.75;7.07;;;;;;;;;;5016013;28;20034;-62
2021/06/25 01:02:25;;;;;;;31.42;7.55;;;;;;;;;;5015987;28;20022;-62
2021/06/25 01:04:53;;;;;;;30.17;7.60;;;;;;;;;;5014316;28;20018;-62
2021/06/25 01:07:19;;;;;;;24.88;5.57;;;;;;;;;;5016213;28;20065;-62
2021/06/25 01:09:45;;;;;;;25.83;5.47;;;;;;;;;;5015831;28;20030;-62
2021/06/25 01:12:12;;;;;;;23.80;6.72;;;;;;;;;;5015795;28;20022;-62
2021/06/25 01:14:40;;;;;;;23.10;5.05;;;;;;;;;;5015730;28;20021;-62
2021/06/25 01:17:07;;;;;;;33.70;7.05;;;;;;;;;;5015769;28;20032;-62
2021/06/25 01:19:33;;;;;;;34.00;7.30;;;;;;;;;;5015696;28;20463;-62
2021/06/25 01:21:59;;;;;;;30.85;6.20;;;;;;;;;;5015603;28;20026;-62
2021/06/25 01:24:26;;;;;;;25.33;5.95;;;;;;;;;;5015516;28;20045;-62
2021/06/25 01:26:52;;;;;;;30.15;6.40;;;;;;;;;;5015841;28;20025;-62
2021/06/25 01:29:20;;;;;;;24.98;6.40;;;;;;;;;;5015519;28;20482;-62
2021/06/25 01:31:47;;;;;;;34.30;6.45;;;;;;;;;;5015384;28;20033;-62
2021/06/25 01:34:13;;;;;;;28.75;5.93;;;;;;;;;;5015096;28;20054;-62
2021/06/25 01:36:39;;;;;;;25.73;5.95;;;;;;;;;;5015357;28;20068;-62
2021/06/25 01:39:06;;;;;;;24.27;6.10;;;;;;;;;;5015293;28;20466;-62
2021/06/25 01:41:38;;;;;;;22.83;5.63;;;;;;;;;;5014952;28;20057;-62
2021/06/25 01:44:04;;;;;;;24.10;5.22;;;;;;;;;;5015219;28;20028;-62
2021/06/25 01:46:32;;;;;;;21.80;6.13;;;;;;;;;;5015485;28;20045;-62
2021/06/25 01:48:58;;;;;;;26.67;6.72;;;;;;;;;;5014167;28;20037;-62
2021/06/25 01:51:24;;;;;;;24.23;6.20;;;;;;;;;;5014713;28;20477;-62
2021/06/25 01:53:50;;;;;;;28.20;5.47;;;;;;;;;;5015083;28;20104;-62
2021/06/25 01:56:17;;;;;;;30.75;5.63;;;;;;;;;;5015058;28;20053;-62
2021/06/25 01:58:43;;;;;;;23.75;5.07;;;;;;;;;;5013662;28;20022;-62
2021/06/25 02:01:11;;;;;;;27.85;5.90;;;;;;;;;;5014918;28;20034;-62
2021/06/25 02:03:40;;;;;;;27.73;6.47;;;;;;;;;;5014853;28;20083;-62
2021/06/25 02:06:08;;;;;;;22.00;5.25;;;;;;;;;;5014854;28;20018;-62
2021/06/25 02:08:35;;;;;;;27.17;6.68;;;;;;;;;;5013462;28;20033;-62
2021/06/25 02:11:01;;;;;;;30.52;7.80;;;;;;;;;;5014633;28;20044;-62
2021/06/25 02:13:28;;;;;;;29.00;6.15;;;;;;;;;;5013406;28;20057;-62
2021/06/25 02:15:54;;;;;;;24.02;6.50;;;;;;;;;;5014679;28;20060;-62
2021/06/25 02:18:20;;;;;;;24.50;5.50;;;;;;;;;;5014609;28;20053;-62
2021/06/25 02:20:47;;;;;;;25.38;6.57;;;;;;;;;;5014538;28;20060;-63
2021/06/25 02:23:13;;;;;;;26.38;5.63;;;;;;;;;;5014478;28;20026;-62
2021/06/25 02:25:40;;;;;;;24.33;5.85;;;;;;;;;;5014435;28;20018;-62
2021/06/25 02:28:06;;;;;;;23.40;5.18;;;;;;;;;;5014394;28;20096;-62
2021/06/25 02:30:32;;;;;;;25.83;5.93;;;;;;;;;;5014309;28;20518;-62
2021/06/25 02:32:59;;;;;;;26.73;5.57;;;;;;;;;;5014281;28;20062;-62
2021/06/25 02:35:25;;;;;;;21.23;5.93;;;;;;;;;;5013973;28;20126;-62
2021/06/25 02:37:55;;;;;;;36.47;6.32;;;;;;;;;;5014230;28;20037;-63
2021/06/25 02:40:21;;;;;;;29.98;5.43;;;;;;;;;;5012873;28;20029;-62
2021/06/25 02:42:48;;;;;;;23.63;5.22;;;;;;;;;;5014288;28;20100;-62
2021/06/25 02:45:14;;;;;;;26.27;6.18;;;;;;;;;;5013848;28;20026;-62
2021/06/25 02:47:40;;;;;;;29.30;5.28;;;;;;;;;;5014072;28;20064;-63
2021/06/25 02:50:08;;;;;;;33.28;6.05;;;;;;;;;;5013938;28;20079;-62
2021/06/25 02:52:34;;;;;;;24.00;4.97;;;;;;;;;;5012698;28;20052;-63
2021/06/25 02:55:00;;;;;;;27.00;4.88;;;;;;;;;;5012627;28;20053;-63
2021/06/25 02:57:27;;;;;;;26.83;5.43;;;;;;;;;;5013945;28;20076;-62
2021/06/25 02:59:53;;;;;;;21.83;5.35;;;;;;;;;;5011627;28;20026;-62
2021/06/25 03:02:19;;;;;;;31.85;5.80;;;;;;;;;;5013813;28;20026;-63
2021/06/25 03:04:45;;;;;;;27.13;6.35;;;;;;;;;;5013803;28;20072;-62
2021/06/25 03:07:12;;;;;;;32.40;5.30;;;;;;;;;;5012470;28;20109;-62
2021/06/25 03:09:38;;;;;;;24.45;5.15;;;;;;;;;;5013588;28;20029;-62
2021/06/25 03:12:05;;;;;;;22.88;5.68;;;;;;;;;;5012314;28;20022;-63
2021/06/25 03:14:31;;;;;;;23.30;5.60;;;;;;;;;;5012324;28;20474;-63
2021/06/25 03:16:57;;;;;;;31.17;5.75;;;;;;;;;;5013790;28;20060;-60
2021/06/25 03:19:23;;;;;;;18.10;4.82;;;;;;;;;;5012149;28;20486;-61
2021/06/25 03:21:49;;;;;;;27.00;6.95;;;;;;;;;;5013741;28;20026;-61
2021/06/25 03:24:16;;;;;;;25.17;5.55;;;;;;;;;;5012238;28;20037;-61
2021/06/25 03:26:42;;;;;;;24.33;5.20;;;;;;;;;;5012218;28;20049;-62
2021/06/25 03:29:08;;;;;;;27.20;5.90;;;;;;;;;;5012127;28;20051;-63
2021/06/25 03:31:35;;;;;;;29.38;6.20;;;;;;;;;;5013325;28;20040;-63
2021/06/25 03:34:01;;;;;;;23.25;5.03;;;;;;;;;;5013108;28;20058;-63
2021/06/25 03:36:27;;;;;;;28.92;6.25;;;;;;;;;;5012139;28;20120;-63
2021/06/25 03:38:53;;;;;;;40.40;5.95;;;;;;;;;;5013337;28;20049;-62
2021/06/25 03:41:20;;;;;;;33.42;7.75;;;;;;;;;;5012997;28;20030;-62
2021/06/25 03:43:46;;;;;;;29.90;6.25;;;;;;;;;;5013353;28;20037;-62
2021/06/25 03:46:12;;;;;;;29.92;5.72;;;;;;;;;;5013518;28;20099;-63
2021/06/25 03:48:39;;;;;;;32.60;6.05;;;;;;;;;;5013273;28;20029;-62
2021/06/25 03:51:05;;;;;;;30.83;6.95;;;;;;;;;;5013124;28;20112;-63
2021/06/25 03:53:31;;;;;;;29.98;5.80;;;;;;;;;;5013213;28;20053;-63
2021/06/25 03:56:10;;;;;;;27.13;6.15;;;;;;;;;;5012862;28;20475;-62
2021/06/25 03:58:38;;;;;;;29.90;6.05;;;;;;;;;;5013191;28;20022;-63
2021/06/25 04:01:04;;;;;;;45.38;7.50;;;;;;;;;;5013130;28;20087;-63
2021/06/25 04:03:30;;;;;;;28.20;6.70;;;;;;;;;;5011824;28;20112;-62
2021/06/25 04:05:56;;;;;;;31.40;7.05;;;;;;;;;;5013314;28;20018;-62
2021/06/25 04:08:26;;;;;;;29.17;6.47;;;;;;;;;;5012782;28;20378;-63
2021/06/25 04:10:52;;;;;;;32.33;7.43;;;;;;;;;;5013540;28;20033;-63
2021/06/25 04:13:19;;;;;;;36.17;8.15;;;;;;;;;;5016838;28;20026;-63
2021/06/25 04:15:45;;;;;;;29.65;7.03;;;;;;;;;;5016870;28;20033;-62
2021/06/25 04:18:11;;;;;;;49.15;8.80;;;;;;;;;;5016559;28;20496;-62
2021/06/25 04:20:38;;;;;;;30.92;7.57;;;;;;;;;;5016454;28;20026;-62
2021/06/25 04:23:04;;;;;;;25.90;6.32;;;;;;;;;;5016408;28;20387;-62
2021/06/25 04:25:30;;;;;;;26.73;6.13;;;;;;;;;;5016880;28;20025;-66
2021/06/25 04:27:56;;;;;;;29.25;6.28;;;;;;;;;;5018476;28;20025;-62
2021/06/25 04:30:23;;;;;;;27.42;5.47;;;;;;;;;;5034912;28;20080;-63
2021/06/25 04:32:49;;;;;;;33.50;6.28;;;;;;;;;;5036393;28;20032;-62
2021/06/25 04:35:15;;;;;;;34.00;6.35;;;;;;;;;;5019781;28;20042;-62
2021/06/25 04:37:42;;;;;;;32.47;5.63;;;;;;;;;;5014894;28;20025;-62
2021/06/25 04:40:08;;;;;;;37.60;6.35;;;;;;;;;;5016114;28;20184;-62
2021/06/25 04:42:34;;;;;;;35.08;5.53;;;;;;;;;;5016243;28;20057;-63
2021/06/25 04:45:01;;;;;;;33.20;6.03;;;;;;;;;;5014497;28;20096;-63
2021/06/25 04:47:27;;;;;;;36.22;6.13;;;;;;;;;;5015915;28;20053;-63
2021/06/25 04:49:53;;;;;;;40.83;7.07;;;;;;;;;;5015983;28;20038;-62
2021/06/25 04:52:19;;;;;;;39.10;7.13;;;;;;;;;;5015901;28;20076;-62
2021/06/25 04:54:46;;;;;;;38.28;6.88;;;;;;;;;;5015737;28;20029;-62
2021/06/25 04:57:14;;;;;;;40.15;7.05;;;;;;;;;;5015110;28;20022;-62
2021/06/25 04:59:40;;;;;;;31.85;6.90;;;;;;;;;;5014305;28;20493;-63
2021/06/25 05:02:07;;;;;;;32.17;7.35;;;;;;;;;;5015124;28;20105;-64
2021/06/25 05:04:33;;;;;;;25.92;6.00;;;;;;;;;;5015829;28;20024;-63
2021/06/25 05:06:59;;;;;;;31.85;6.40;;;;;;;;;;5015501;28;20072;-63
2021/06/25 05:09:26;;;;;;;23.27;5.90;;;;;;;;;;5015060;28;20040;-63
2021/06/25 05:11:52;;;;;;;25.08;6.22;;;;;;;;;;5015622;28;20069;-63
2021/06/25 05:14:18;;;;;;;23.25;7.00;;;;;;;;;;5015584;28;20755;-63
2021/06/25 05:16:44;;;;;;;44.33;6.90;;;;;;;;;;5014892;28;20026;-63
2021/06/25 05:19:10;;;;;;;29.50;6.53;;;;;;;;;;5015454;28;20048;-63
2021/06/25 05:21:37;;;;;;;37.80;7.57;;;;;;;;;;5013907;28;20545;-62
2021/06/25 05:24:04;;;;;;;32.55;5.93;;;;;;;;;;5014159;28;20109;-63
2021/06/25 05:26:30;;;;;;;38.50;7.20;;;;;;;;;;5015071;28;20025;-63
2021/06/25 05:28:56;;;;;;;42.70;6.43;;;;;;;;;;5014137;28;20037;-62
2021/06/25 05:31:23;;;;;;;27.42;6.40;;;;;;;;;;5015051;28;20025;-62
2021/06/25 05:33:49;;;;;;;24.50;5.95;;;;;;;;;;5014808;28;20037;-63
2021/06/25 05:36:15;;;;;;;26.05;6.15;;;;;;;;;;5014048;28;20116;-62
2021/06/25 05:38:41;;;;;;;35.45;6.72;;;;;;;;;;5014691;28;20024;-62
2021/06/25 05:41:08;;;;;;;42.85;6.78;;;;;;;;;;5015038;28;20022;-62
2021/06/25 05:43:34;;;;;;;35.50;6.50;;;;;;;;;;5015198;28;20037;-62
2021/06/25 05:46:01;;;;;;;35.03;6.75;;;;;;;;;;5014991;28;20525;-62
2021/06/25 05:48:27;;;;;;;38.70;7.10;;;;;;;;;;5014629;28;20033;-63
2021/06/25 05:50:54;;;;;;;34.83;6.97;;;;;;;;;;5014818;28;20026;-62
2021/06/25 05:53:20;;;;;;;32.45;6.68;;;;;;;;;;5013456;28;20030;-63
2021/06/25 05:55:46;;;;;;;36.45;7.30;;;;;;;;;;5014295;28;20022;-62
2021/06/25 05:58:12;;;;;;;31.88;6.55;;;;;;;;;;5013247;28;20018;-63
2021/06/25 06:00:39;;;;;;;41.35;7.15;;;;;;;;;;5013393;28;20029;-62
2021/06/25 06:03:05;;;;;;;40.67;6.80;;;;;;;;;;5014567;28;20478;-63
2021/06/25 06:05:32;;;;;;;36.33;6.70;;;;;;;;;;5014339;28;20109;-62
2021/06/25 06:07:58;;;;;;;32.22;6.85;;;;;;;;;;5014688;28;20025;-63
2021/06/25 06:10:24;;;;;;;40.38;6.75;;;;;;;;;;5014406;28;20062;-62
2021/06/25 06:12:50;;;;;;;37.70;6.57;;;;;;;;;;5014391;28;20090;-62
2021/06/25 06:15:17;;;;;;;27.60;6.28;;;;;;;;;;5014563;28;20463;-63
2021/06/25 06:17:47;;;;;;;34.70;7.57;;;;;;;;;;5013651;28;20037;-63
2021/06/25 06:20:18;;;;;;;31.75;6.30;;;;;;;;;;5014506;28;20533;-63
2021/06/25 06:33:49;;;;;;;34.03;6.32;;;;;;;;;;5013740;28;20041;-63
2021/06/25 06:36:25;;;;;;;39.20;6.15;;;;;;;;;;5012462;28;20048;-62
2021/06/25 06:38:52;;;;;;;33.55;6.72;;;;;;;;;;5012978;28;20049;-61
2021/06/25 06:41:19;;;;;;;33.08;6.90;;;;;;;;;;5033769;28;20033;-61
2021/06/25 06:43:47;;;;;;;36.17;6.47;;;;;;;;;;5033455;28;20104;-62
2021/06/25 06:46:13;;;;;;;43.63;6.57;;;;;;;;;;5033220;28;20549;-62
2021/06/25 06:48:40;;;;;;;31.35;6.35;;;;;;;;;;5032218;28;20040;-63
2021/06/25 06:51:07;;;;;;;30.27;6.00;;;;;;;;;;5033313;28;20076;-62
2021/06/25 06:53:33;;;;;;;34.83;6.38;;;;;;;;;;5033552;28;20029;-62
2021/06/25 06:56:00;;;;;;;33.60;6.45;;;;;;;;;;5033193;28;20027;-62
2021/06/25 06:58:27;;;;;;;32.65;5.68;;;;;;;;;;5033480;28;20025;-62
2021/06/25 07:00:54;;;;;;;27.67;6.38;;;;;;;;;;5021372;28;20482;-63
2021/06/25 07:03:20;;;;;;;28.38;5.57;;;;;;;;;;5013684;28;20026;-62
2021/06/25 07:05:46;;;;;;;32.17;6.25;;;;;;;;;;5013657;28;20018;-62
2021/06/25 07:08:13;;;;;;;27.48;6.60;;;;;;;;;;5013557;28;20037;-64
2021/06/25 07:10:39;;;;;;;35.40;6.32;;;;;;;;;;5011909;28;20026;-61
2021/06/25 07:13:05;;;;;;;28.90;5.82;;;;;;;;;;5012231;28;20535;-64
2021/06/25 07:15:31;;;;;;;26.42;5.82;;;;;;;;;;5012256;28;20172;-62
2021/06/25 07:17:57;;;;;;;26.05;6.00;;;;;;;;;;5012994;28;20032;-63
2021/06/25 07:20:23;;;;;;;26.90;5.43;;;;;;;;;;5012035;28;20034;-62
2021/06/25 07:22:50;;;;;;;31.58;5.35;;;;;;;;;;5012915;28;20122;-63
2021/06/25 07:25:16;;;;;;;29.15;5.82;;;;;;;;;;5013091;28;20022;-63
2021/06/25 07:27:42;;;;;;;32.90;5.80;;;;;;;;;;5012975;28;20462;-65
2021/06/25 07:30:09;;;;;;;19.98;5.40;;;;;;;;;;5012662;28;20044;-63
2021/06/25 07:32:35;;;;;;;27.38;6.03;;;;;;;;;;5013833;28;20022;-62
2021/06/25 07:35:13;;;;;;;26.60;4.78;;;;;;;;;;5018625;28;20049;-62
2021/06/25 07:37:40;;;;;;;26.92;5.93;;;;;;;;;;5012527;28;20105;-64
2021/06/25 07:40:07;;;;;;;30.38;5.82;;;;;;;;;;5013185;28;20109;-63
2021/06/25 07:42:33;;;;;;;46.05;7.28;;;;;;;;;;5011861;28;20022;-64
2021/06/25 07:45:00;;;;;;;25.48;5.05;;;;;;;;;;5013280;28;20049;-64
2021/06/25 07:47:27;;;;;;;23.90;4.78;;;;;;;;;;5018879;28;20053;-63
2021/06/25 07:49:53;;;;;;;21.42;4.93;;;;;;;;;;5019612;28;20022;-64
2021/06/25 07:52:19;;;;;;;32.25;5.78;;;;;;;;;;5014961;28;20418;-64
2021/06/25 07:54:46;;;;;;;28.50;5.05;;;;;;;;;;5038039;28;20069;-63
2021/06/25 07:57:12;;;;;;;25.35;5.40;;;;;;;;;;5037954;28;20374;-64
2021/06/25 07:59:38;;;;;;;30.25;6.10;;;;;;;;;;5037886;28;20075;-64
2021/06/25 08:02:04;;;;;;;30.83;5.47;;;;;;;;;;5038753;28;20458;-64
2021/06/25 08:04:31;;;;;;;36.75;6.18;;;;;;;;;;5039079;28;20488;-64
2021/06/25 08:06:58;;;;;;;28.55;6.10;;;;;;;;;;5038705;28;20064;-63
2021/06/25 08:09:24;;;;;;;33.67;6.45;;;;;;;;;;5038570;28;20063;-64
2021/06/25 08:11:51;;;;;;;27.67;5.78;;;;;;;;;;5039037;28;20029;-65
2021/06/25 08:14:18;;;;;;;29.58;4.75;;;;;;;;;;5038581;28;20025;-64
2021/06/25 08:16:44;;;;;;;27.55;5.88;;;;;;;;;;5038584;28;20068;-64
2021/06/25 08:19:10;;;;;;;34.50;6.10;;;;;;;;;;5037504;28;20018;-65
2021/06/25 08:21:36;;;;;;;26.27;5.88;;;;;;;;;;5036826;28;20108;-63
2021/06/25 08:24:03;;;;;;;29.95;5.90;;;;;;;;;;5036961;28;20025;-65
2021/06/25 08:26:29;;;;;;;40.63;7.70;;;;;;;;;;5036958;28;20028;-66
2021/06/25 08:28:56;;;;;;;30.88;6.07;;;;;;;;;;5036834;28;20487;-64
2021/06/25 08:31:22;;;;;;;33.88;5.43;;;;;;;;;;5036813;28;20104;-64
2021/06/25 08:33:49;;;;;;;32.55;4.88;;;;;;;;;;5038447;28;20121;-64
2021/06/25 08:36:15;;;;;;;19.05;4.88;;;;;;;;;;5038684;28;20025;-66
2021/06/25 08:38:42;;;;;;;30.98;5.60;;;;;;;;;;5038241;28;20040;-64
2021/06/25 08:41:08;;;;;;;30.15;5.63;;;;;;;;;;5038468;28;20513;-62
2021/06/25 08:43:34;;;;;;;27.58;6.35;;;;;;;;;;5037160;28;20064;-62
2021/06/25 08:46:01;;;;;;;29.55;6.20;;;;;;;;;;5038449;28;20109;-61
2021/06/25 08:48:27;;;;;;;26.02;5.35;;;;;;;;;;5038505;28;20076;-64
2021/06/25 08:50:58;;;;;;;32.20;5.30;;;;;;;;;;5037126;28;20114;-65
2021/06/25 08:53:24;;;;;;;34.47;5.97;;;;;;;;;;5019204;28;20030;-64
2021/06/25 08:55:51;;;;;;;22.38;4.85;;;;;;;;;;5018927;28;20022;-66
2021/06/25 08:58:18;;;;;;;22.20;5.57;;;;;;;;;;5016578;28;20028;-64
2021/06/25 09:00:44;;;;;;;23.40;5.70;;;;;;;;;;5015163;28;20127;-64
2021/06/25 09:03:29;;;;;;;26.17;5.47;;;;;;;;;;5015489;28;20022;-64
2021/06/25 09:06:09;;;;;;;23.48;5.00;;;;;;;;;;5024588;28;20355;-64
2021/06/25 09:08:36;;;;;;;32.13;6.05;;;;;;;;;;5035065;28;20057;-65
2021/06/25 09:11:16;;;;;;;29.17;6.20;;;;;;;;;;5034539;28;20540;-64
2021/06/25 09:13:42;;;;;;;23.75;5.80;;;;;;;;;;5034075;28;20025;-64
2021/06/25 09:16:20;;;;;;;36.22;5.75;;;;;;;;;;5033693;28;20084;-64
2021/06/25 09:19:00;;;;;;;27.88;6.13;;;;;;;;;;5034830;28;20040;-64
2021/06/25 09:21:27;;;;;;;24.55;5.80;;;;;;;;;;5035246;28;20045;-65
2021/06/25 09:23:53;;;;;;;28.88;5.68;;;;;;;;;;5033626;28;20033;-65
2021/06/25 09:26:22;;;;;;;24.92;5.07;;;;;;;;;;5034839;28;20416;-65
2021/06/25 09:28:49;;;;;;;26.08;5.05;;;;;;;;;;5034320;28;20025;-64
2021/06/25 09:31:17;;;;;;;29.17;5.65;;;;;;;;;;5033263;28;20351;-64
2021/06/25 09:33:47;;;;;;;25.65;5.95;;;;;;;;;;5034359;28;20030;-63
2021/06/25 09:36:24;;;;;;;22.80;4.97;;;;;;;;;;5035139;28;20026;-65
2021/06/25 09:39:07;;;;;;;25.48;4.95;;;;;;;;;;5033353;28;20048;-67
2021/06/25 09:41:33;;;;;;;22.70;5.35;;;;;;;;;;5034600;28;20074;-66
2021/06/25 09:44:01;;;;;;;25.25;4.68;;;;;;;;;;5034589;28;20033;-65
2021/06/25 09:46:30;;;;;;;25.38;4.43;;;;;;;;;;5033238;28;20057;-65
2021/06/25 09:49:04;;;;;;;23.10;5.47;;;;;;;;;;5034789;28;20092;-65
2021/06/25 09:51:31;;;;;;;27.98;5.07;;;;;;;;;;5034343;28;20108;-65
2021/06/25 09:54:08;;;;;;;23.17;4.90;;;;;;;;;;5034871;28;20044;-65
2021/06/25 09:56:38;;;;;;;26.63;4.72;;;;;;;;;;5016249;28;20026;-64
2021/06/25 10:01:58;;;;;;;27.92;4.25;;;;;;;;;;5014660;28;20118;-64
2021/06/25 10:04:34;;;;;;;24.92;4.97;;;;;;;;;;5013754;28;20045;-64
2021/06/25 10:07:20;;;;;;;25.00;5.65;;;;;;;;;;5013221;28;20022;-64
2021/06/25 10:09:47;;;;;;;23.05;5.32;;;;;;;;;;5014037;28;20018;-64
2021/06/25 10:12:14;;;;;;;29.48;4.85;;;;;;;;;;5014093;28;20514;-64
2021/06/25 10:14:41;;;;;;;24.02;5.15;;;;;;;;;;5023529;28;20478;-64
2021/06/25 10:17:11;;;;;;;17.80;4.65;;;;;;;;;;5033738;28;20116;-64
2021/06/25 10:19:47;;;;;;;22.73;4.18;;;;;;;;;;5034025;28;20053;-64
2021/06/25 10:22:14;;;;;;;20.92;5.03;;;;;;;;;;5023251;28;20516;-64
2021/06/25 10:24:44;;;;;;;26.63;4.70;;;;;;;;;;5014310;28;20459;-63
2021/06/25 10:27:11;;;;;;;21.20;4.60;;;;;;;;;;5013994;28;20034;-62
2021/06/25 10:29:38;;;;;;;31.70;5.10;;;;;;;;;;5012011;28;20026;-63
2021/06/25 10:32:08;;;;;;;27.50;5.90;;;;;;;;;;5013865;28;20029;-64
2021/06/25 10:34:35;;;;;;;26.52;5.65;;;;;;;;;;5013176;28;20065;-66
2021/06/25 10:37:02;;;;;;;28.25;5.00;;;;;;;;;;5012277;28;20053;-64
2021/06/25 10:39:31;;;;;;;22.02;5.00;;;;;;;;;;5012279;28;20076;-64
2021/06/25 10:41:58;;;;;;;30.55;5.63;;;;;;;;;;5013449;28;20117;-63
2021/06/25 10:44:40;;;;;;;24.23;4.65;;;;;;;;;;5012099;28;20033;-63
2021/06/25 10:47:12;;;;;;;28.52;5.03;;;;;;;;;;5013135;28;20442;-63
2021/06/25 10:50:05;;;;;;;28.40;5.15;;;;;;;;;;5012064;28;20105;-65
2021/06/25 10:52:31;;;;;;;34.00;4.97;;;;;;;;;;4997600;28;20045;-67
2021/06/25 10:55:06;;;;;;;27.95;5.93;;;;;;;;;;5013373;28;20026;-66
2021/06/25 10:57:33;;;;;;;29.80;5.45;;;;;;;;;;5012131;28;20348;-66
2021/06/25 11:00:00;;;;;;;28.83;4.90;;;;;;;;;;5012121;28;20129;-68
2021/06/25 11:02:41;;;;;;;35.55;5.45;;;;;;;;;;5013578;28;20018;-65
2021/06/25 11:05:26;;;;;;;27.30;5.57;;;;;;;;;;5012179;28;20137;-64
2021/06/25 11:07:52;;;;;;;22.65;4.97;;;;;;;;;;5013462;28;20109;-64
2021/06/25 11:10:22;;;;;;;32.25;5.75;;;;;;;;;;5012100;28;20060;-64
2021/06/25 11:12:52;;;;;;;28.15;5.63;;;;;;;;;;5013020;28;20502;-64
2021/06/25 11:15:33;;;;;;;27.88;5.05;;;;;;;;;;5013365;28;20032;-64
2021/06/25 11:18:01;;;;;;;25.52;5.10;;;;;;;;;;5013274;28;20457;-64
2021/06/25 11:20:29;;;;;;;25.95;4.95;;;;;;;;;;5012640;28;20037;-66
2021/06/25 11:22:57;;;;;;;29.17;4.60;;;;;;;;;;5013264;28;20026;-65
2021/06/25 11:25:37;;;;;;;31.13;5.35;;;;;;;;;;5013412;28;20018;-63
2021/06/25 11:28:24;;;;;;;28.98;5.45;;;;;;;;;;5013405;28;20092;-64
2021/06/25 11:31:03;;;;;;;26.40;5.25;;;42.70;50.30;;;;;;5006118;28;20068;-65
2021/06/25 11:33:47;;;;;;;24.58;5.05;;;42.90;52.00;;;;;;5012993;28;20382;-65
2021/06/25 11:36:17;;;;;;;27.77;5.40;;;;;;;;;;5013228;28;20046;-63
2021/06/25 11:39:04;;;;;;;22.60;5.07;;;44.00;60.60;;;;;;5013217;28;20154;-64
2021/06/25 11:41:45;;;;;;;20.15;4.78;;;44.50;51.10;;;;;;5013081;28;20030;-63
2021/06/25 11:44:24;;;;;;;21.90;4.70;;;;;;;;;;5012786;28;20065;-64
2021/06/25 11:46:50;;;;;;;28.92;5.75;;;;;;;;;;5012907;28;20022;-65
2021/06/25 11:49:16;;;;;;;27.88;4.68;;;;;;;;;;5012659;28;20041;-64
2021/06/25 11:51:44;;;;;;;27.77;5.65;;;;;;;;;;5012819;28;20117;-63
2021/06/25 11:54:12;;;;;;;19.83;4.88;;;;;;;;;;5011489;28;20029;-63
2021/06/25 11:56:38;;;;;;;29.05;5.72;;;43.60;50.90;;;;;;5012530;28;20042;-64
2021/06/25 11:59:09;;;;;;;28.17;4.82;;;;;;;;;;5011263;28;20030;-64
2021/06/25 12:01:57;;;;;;;27.48;4.90;;;44.70;49.30;;;;;;5012870;28;20426;-63
2021/06/25 12:04:37;;;;;;;23.70;5.55;;;44.30;49.80;;;;;;5012779;28;20066;-66
2021/06/25 12:07:05;;;;;;;24.98;5.00;;;43.60;50.90;;;;;;5012759;28;20041;-66
2021/06/25 12:09:57;;;;;;;28.23;5.40;;;43.10;49.90;;;;;;5010778;28;20034;-64
2021/06/25 12:12:43;;;;;;;33.45;5.30;;;42.30;50.10;;;;;;5010310;28;20424;-66
2021/06/25 12:15:12;;;;;;;25.25;4.78;;;42.10;52.20;;;;;;5012166;28;20111;-63
2021/06/25 12:17:49;;;;;;;25.02;4.68;;;43.00;50.40;;;;;;5011218;28;20037;-65
2021/06/25 12:20:32;;;;;;;24.33;5.25;;;43.10;51.10;;;;;;5012393;28;20026;-67
2021/06/25 12:23:06;;;;;;;26.08;4.60;;;43.20;50.40;;;;;;5012368;28;20045;-64
2021/06/25 12:25:33;;;;;;;28.90;6.32;;;43.20;50.60;;;;;;5012759;28;20026;-66
2021/06/25 12:28:00;;;;;;;20.73;5.28;;;;;;;;;;5011176;28;20116;-64
2021/06/25 12:30:26;;;;;;;21.88;4.97;;;42.50;48.40;;;;;;5012630;28;20026;-65
2021/06/25 12:33:06;;;;;;;19.42;4.35;;;42.30;49.50;;;;;;5014629;28;20383;-66
2021/06/25 12:35:34;;;;;;;30.08;5.05;;;;;;;;;;5015498;28;20119;-64
2021/06/25 12:38:06;;;;;;;29.88;4.97;;;42.10;90.40;;;;;;5016340;28;20033;-65
2021/06/25 12:40:51;;;;;;;21.95;5.47;;;42.30;51.30;;;;;;5016383;28;20041;-65
2021/06/25 12:43:21;;;;;;;23.63;5.50;;;42.10;51.50;;;;;;5016121;28;20026;-64
2021/06/25 12:45:47;;;;;;;27.48;5.63;;;;;;;;;;5016068;28;20029;-67
2021/06/25 12:48:16;;;;;;;30.63;6.68;;;40.10;52.20;;;;;;5016028;28;20048;-64
2021/06/25 12:50:42;;;;;;;31.40;5.65;;;;;;;;;;5014764;28;20041;-63
2021/06/25 12:53:16;;;;;;;28.90;5.38;;;;;;;;;;5016203;28;20025;-64
2021/06/25 12:55:44;;;;;;;29.27;6.20;;;;;;;;;;5016185;28;20022;-63
2021/06/25 12:58:15;;;;;;;29.05;5.45;;;;;;;;;;5014766;28;20026;-64
2021/06/25 13:00:42;;;;;;;24.75;5.20;;;;;;;;;;5015807;28;20156;-63
2021/06/25 13:03:11;;;;;;;28.73;5.18;;;;;;;;;;5016003;28;20022;-64
2021/06/25 13:05:37;;;;;;;36.10;7.05;;;;;;;;;;5015796;28;20081;-64
2021/06/25 13:08:17;;;;;;;32.75;6.32;;;;;;;;;;5015637;28;20026;-63
2021/06/25 13:10:43;;;;;;;24.35;5.35;;;;;;;;;;5014661;28;20061;-63
2021/06/25 13:13:20;;;;;;;29.60;5.20;;;;;;;;;;5015073;28;20030;-63
2021/06/25 13:15:47;;;;;;;25.10;4.95;;;;;;;;;;5015151;28;20105;-63
2021/06/25 13:18:14;;;;;;;22.70;5.68;;;;;;;;;;5014010;28;20116;-64
2021/06/25 13:21:01;;;;;;;28.08;6.15;;;;;;;;;;5015289;28;20025;-65
2021/06/25 13:23:28;;;;;;;31.23;5.45;;;;;;;;;;5015418;28;20018;-64
2021/06/25 13:26:00;;;;;;;21.60;5.15;;;;;;;;;;5014083;28;20024;-64
2021/06/25 13:28:27;;;;;;;26.20;4.82;;;;;;;;;;5014698;28;20038;-64
2021/06/25 13:31:06;;;;;;;24.48;5.28;;;;;;;;;;5015391;28;20022;-63
2021/06/25 13:33:40;;;;;;;25.08;5.00;;;;;;;;;;5015490;28;20088;-63
2021/06/25 13:36:08;;;;;;;32.70;5.55;;;;;;;;;;5015539;28;20512;-65
2021/06/25 13:38:35;;;;;;;34.40;5.35;;;;;;;;;;5015353;28;20025;-63
2021/06/25 13:41:05;;;;;;;26.40;5.20;;;;;;;;;;5015316;28;20408;-63
2021/06/25 13:43:33;;;;;;;21.58;5.03;;;;;;;;;;5014477;28;20025;-64
2021/06/25 13:46:12;;;;;;;28.27;5.55;;;;;;;;;;5015367;28;20096;-63
2021/06/25 13:48:38;;;;;;;30.52;7.38;;;;;;;;;;5015166;28;20025;-63
2021/06/25 13:51:05;;;;;;;64.40;9.25;;;;;;;;;;5015263;28;20029;-64
2021/06/25 13:53:42;;;;;;;56.67;7.68;;;;;;;;;;5013803;28;20034;-66
2021/06/25 13:56:10;;;;;;;54.78;5.55;;;;;;;;;;5015093;28;20180;-67
2021/06/25 13:58:55;;;;;;;48.72;5.30;;;;;;;;;;5014960;28;20038;-65
2021/06/25 14:01:24;;;;;;;22.08;3.90;;;;;;;;;;5014993;28;20030;-68
2021/06/25 14:03:55;;;;;;;15.15;4.50;;;;;;;;;;5014901;28;20026;-66
2021/06/25 14:06:21;;;;;;;14.82;3.33;;;;;;;;;;5014844;28;20385;-63
2021/06/25 14:08:47;;;;;;;16.02;2.97;;;;;;;;;;5014839;28;20041;-64
2021/06/25 14:11:15;;;;;;;19.05;2.97;;;;;;;;;;5014680;28;20057;-65
2021/06/25 14:13:42;;;;;;;24.65;4.15;;;;;;;;;;5013417;28;20026;-67
2021/06/25 14:16:16;;;;;;;19.08;2.83;;;;;;;;;;5013381;28;20459;-66
2021/06/25 14:18:42;;;;;;;20.15;3.72;;;;;;;;;;5014602;28;20033;-68
2021/06/25 14:21:08;;;;;;;16.67;3.15;;;;;;;;;;5014352;28;20060;-65
2021/06/25 14:23:36;;;;;;;19.95;3.53;;;;;;;;;;5013337;28;20049;-66
2021/06/25 14:26:04;;;;;;;10.25;2.65;;;;;;;;;;5014760;28;20026;-65
2021/06/25 14:28:30;;;;;;;11.50;2.28;;;;;;;;;;5014404;28;20036;-64
2021/06/25 14:30:56;;;;;;;18.70;3.28;;;;;;;;;;5013006;28;20375;-65
2021/06/25 14:33:23;;;;;;;12.35;2.33;;;;;;;;;;5014120;28;20029;-67
2021/06/25 14:35:51;;;;;;;13.88;2.65;;;;;;;;;;5012799;28;20065;-67
2021/06/25 14:38:17;;;;;;;14.60;2.03;;;;;;;;;;5014278;28;20466;-66
2021/06/25 14:40:44;;;;;;;10.73;2.30;;;;;;;;;;5014225;28;20065;-64
2021/06/25 14:43:10;;;;;;;9.13;2.33;;;;;;;;;;5012928;28;20034;-63